Saldanha — 9HFM9 — position and weather

sailwx.info

Track history (hours):
 
Tides and Currents Weather Stations Pressure Air Temp Water Temp Dewpoint Dewpoint Depression Visibility Wind Speed Wind Dir Waves Ship Positions

Saldanha

Last reported at 2018-Jul-11 07:17 UTC. Time now 2018-Jul-22 16:41 UTC.
Position N 34°57' E 129°04'.
Warning: this ship's position is 11 days out of date.

Length 225 m; draft 11.6 m.

Type: Cargo ship. MMSI: 256913000.

Date/timePositionNaut miles runAvg speedWind from/ knotsBaromVisibWave heightAir tempDewpointWater temp
2018-Jul-11 07:17N 34°57' E 129°04'310.1
2018-Jul-11 06:57N 35°00' E 129°04'2 0.6
2018-Jul-11 03:11N 35°02' E 129°05'0 0.1
2018-Jul-11 02:56N 35°02' E 129°05'0 0.1
2018-Jul-11 02:29N 35°02' E 129°05'0 0.2
2018-Jul-11 01:59N 35°02' E 129°05'1 1.7
2018-Jul-11 01:30N 35°01' E 129°05'4 7.4
2018-Jul-11 01:00N 35°02' E 129°09'1 2.4
2018-Jul-11 00:25N 35°01' E 129°10'5 8.5
2018-Jul-10 23:51N 35°02' E 129°05'1 0.3
2018-Jul-10 20:47N 35°03' E 129°05'0 0.0
2018-Jul-10 20:29N 35°03' E 129°05'0 0.1
2018-Jul-10 19:56N 35°03' E 129°04'0 0.0
2018-Jul-10 19:29N 35°03' E 129°04'0 0.1
2018-Jul-10 18:50N 35°03' E 129°04'0 0.1
2018-Jul-10 18:26N 35°03' E 129°04'0 0.1
2018-Jul-10 17:44N 35°03' E 129°05'0 0.1
2018-Jul-10 17:26N 35°03' E 129°05'0 0.0
2018-Jul-10 16:32N 35°03' E 129°05'0 0.0
2018-Jul-10 16:29N 35°03' E 129°05'0 0.0
2018-Jul-10 15:53N 35°03' E 129°05'0 0.0
2018-Jul-10 15:26N 35°03' E 129°05'0 0.0
2018-Jul-10 14:14N 35°03' E 129°05'0 0.0
2018-Jul-10 13:41N 35°03' E 129°05'0 0.1
2018-Jul-10 13:29N 35°03' E 129°05'0 0.1
2018-Jul-10 12:59N 35°03' E 129°05'0 0.0
2018-Jul-10 12:29N 35°03' E 129°05'0 0.0
2018-Jul-10 11:59N 35°03' E 129°05'0 0.0
2018-Jul-10 11:29N 35°03' E 129°05'0 0.1
2018-Jul-10 10:44N 35°03' E 129°04'0 0.1
2018-Jul-10 10:20N 35°03' E 129°05'0 0.1
2018-Jul-10 09:53N 35°03' E 129°04'0 0.0
2018-Jul-09 21:08N 35°03' E 129°05'0 0.0
2018-Jul-09 20:59N 35°03' E 129°05'0 0.1
2018-Jul-09 19:14N 35°03' E 129°04'0 0.0
2018-Jul-09 17:17N 35°03' E 129°04'0 0.0
2018-Jul-09 16:56N 35°03' E 129°04'0 0.1
2018-Jul-09 16:26N 35°03' E 129°04'0 0.1
2018-Jul-09 15:11N 35°03' E 129°04'0 0.0
2018-Jul-09 14:53N 35°03' E 129°04'0 0.0
2018-Jul-09 14:29N 35°03' E 129°04'0 0.0
2018-Jul-09 13:44N 35°03' E 129°04'0 0.1
2018-Jul-09 13:29N 35°03' E 129°04'0 0.0
2018-Jul-09 12:50N 35°03' E 129°04'0 0.0
2018-Jul-09 12:23N 35°03' E 129°04'0 0.0
2018-Jul-09 11:59N 35°03' E 129°04'0 0.0
2018-Jul-09 11:17N 35°03' E 129°04'0 0.0
2018-Jul-09 10:56N 35°03' E 129°04'0 0.0
2018-Jul-09 09:53N 35°03' E 129°04'0 0.0
2018-Jul-08 20:38N 35°03' E 129°04'0 0.2
2018-Jul-08 20:05N 35°03' E 129°04'0 0.1
2018-Jul-08 19:59N 35°03' E 129°04'0 0.0
2018-Jul-08 19:11N 35°03' E 129°04'0 0.0
2018-Jul-08 18:59N 35°03' E 129°04'0 0.0
2018-Jul-08 16:08N 35°03' E 129°04'0 0.0
2018-Jul-08 12:53N 35°03' E 129°04'0 0.0
2018-Jul-08 10:50N 35°03' E 129°04'0 0.0
2018-Jul-08 09:50N 35°03' E 129°04'0 0.0
2018-Jul-08 08:47N 35°03' E 129°04'0 0.0
2018-Jul-08 01:41N 35°03' E 129°04'0 0.0
2018-Jul-08 01:17N 35°03' E 129°04'0 0.0
2018-Jul-08 00:23N 35°03' E 129°04'0 0.0
2018-Jul-07 23:23N 35°03' E 129°04'0 0.0
2018-Jul-07 21:26N 35°03' E 129°04'0 0.0
2018-Jul-07 20:53N 35°03' E 129°04'0 0.0
2018-Jul-07 20:29N 35°03' E 129°04'0 0.0
2018-Jul-07 18:53N 35°03' E 129°04'0 0.0
2018-Jul-07 18:26N 35°03' E 129°04'0 0.0
2018-Jul-07 14:35N 35°03' E 129°04'0 0.0
2018-Jul-07 11:53N 35°03' E 129°04'0 0.1
2018-Jul-07 11:29N 35°03' E 129°04'0 0.0
2018-Jul-07 03:11N 35°03' E 129°04'0 1.1
2018-Jul-07 02:54N 35°03' E 129°04'2 3.7
2018-Jul-07 02:30N 35°01' E 129°03'0 0.1
2018-Jul-06 22:52N 35°01' E 129°03'0 0.0
2018-Jul-06 09:46N 35°01' E 129°03'0 0.2
2018-Jul-06 09:28N 35°01' E 129°03'0 0.0
2018-Jul-06 04:37N 35°01' E 129°03'0 0.0
2018-Jul-06 04:25N 35°01' E 129°03'0 0.0
2018-Jul-06 03:52N 35°01' E 129°03'0 0.2
2018-Jul-06 03:21N 35°01' E 129°03'4 4.9
2018-Jul-06 02:27N 35°02' E 129°08'510.6
2018-Jul-06 02:00N 35°05' E 129°13'  
Track history (hours):
 
Tides and Currents Weather Stations Pressure Air Temp Water Temp Dewpoint Dewpoint Depression Visibility Wind Speed Wind Dir Waves Ship Positions

Saldanha

Last reported at 2018-Jul-11 07:17 UTC. Time now 2018-Jul-22 16:41 UTC.
Position N 34°57' E 129°04'.
Warning: this ship's position is 11 days out of date.

Length 225 m; draft 11.6 m.

Type: Cargo ship. MMSI: 256913000.

Date/timePositionNaut miles runAvg speedWind from/ knotsBaromVisibWave heightAir tempDewpointWater temp
2018-Jul-11 07:17N 34°57' E 129°04'310.1
2018-Jul-11 06:57N 35°00' E 129°04'2 0.6
2018-Jul-11 03:11N 35°02' E 129°05'0 0.1
2018-Jul-11 02:56N 35°02' E 129°05'0 0.1
2018-Jul-11 02:29N 35°02' E 129°05'0 0.2
2018-Jul-11 01:59N 35°02' E 129°05'1 1.7
2018-Jul-11 01:30N 35°01' E 129°05'4 7.4
2018-Jul-11 01:00N 35°02' E 129°09'1 2.4
2018-Jul-11 00:25N 35°01' E 129°10'5 8.5
2018-Jul-10 23:51N 35°02' E 129°05'1 0.3
2018-Jul-10 20:47N 35°03' E 129°05'0 0.0
2018-Jul-10 20:29N 35°03' E 129°05'0 0.1
2018-Jul-10 19:56N 35°03' E 129°04'0 0.0
2018-Jul-10 19:29N 35°03' E 129°04'0 0.1
2018-Jul-10 18:50N 35°03' E 129°04'0 0.1
2018-Jul-10 18:26N 35°03' E 129°04'0 0.1
2018-Jul-10 17:44N 35°03' E 129°05'0 0.1
2018-Jul-10 17:26N 35°03' E 129°05'0 0.0
2018-Jul-10 16:32N 35°03' E 129°05'0 0.0
2018-Jul-10 16:29N 35°03' E 129°05'0 0.0
2018-Jul-10 15:53N 35°03' E 129°05'0 0.0
2018-Jul-10 15:26N 35°03' E 129°05'0 0.0
2018-Jul-10 14:14N 35°03' E 129°05'0 0.0
2018-Jul-10 13:41N 35°03' E 129°05'0 0.1
2018-Jul-10 13:29N 35°03' E 129°05'0 0.1
2018-Jul-10 12:59N 35°03' E 129°05'0 0.0
2018-Jul-10 12:29N 35°03' E 129°05'0 0.0
2018-Jul-10 11:59N 35°03' E 129°05'0 0.0
2018-Jul-10 11:29N 35°03' E 129°05'0 0.1
2018-Jul-10 10:44N 35°03' E 129°04'0 0.1
2018-Jul-10 10:20N 35°03' E 129°05'0 0.1
2018-Jul-10 09:53N 35°03' E 129°04'0 0.0
2018-Jul-09 21:08N 35°03' E 129°05'0 0.0
2018-Jul-09 20:59N 35°03' E 129°05'0 0.1
2018-Jul-09 19:14N 35°03' E 129°04'0 0.0
2018-Jul-09 17:17N 35°03' E 129°04'0 0.0
2018-Jul-09 16:56N 35°03' E 129°04'0 0.1
2018-Jul-09 16:26N 35°03' E 129°04'0 0.1
2018-Jul-09 15:11N 35°03' E 129°04'0 0.0
2018-Jul-09 14:53N 35°03' E 129°04'0 0.0
2018-Jul-09 14:29N 35°03' E 129°04'0 0.0
2018-Jul-09 13:44N 35°03' E 129°04'0 0.1
2018-Jul-09 13:29N 35°03' E 129°04'0 0.0
2018-Jul-09 12:50N 35°03' E 129°04'0 0.0
2018-Jul-09 12:23N 35°03' E 129°04'0 0.0
2018-Jul-09 11:59N 35°03' E 129°04'0 0.0
2018-Jul-09 11:17N 35°03' E 129°04'0 0.0
2018-Jul-09 10:56N 35°03' E 129°04'0 0.0
2018-Jul-09 09:53N 35°03' E 129°04'0 0.0
2018-Jul-08 20:38N 35°03' E 129°04'0 0.2
2018-Jul-08 20:05N 35°03' E 129°04'0 0.1
2018-Jul-08 19:59N 35°03' E 129°04'0 0.0
2018-Jul-08 19:11N 35°03' E 129°04'0 0.0
2018-Jul-08 18:59N 35°03' E 129°04'0 0.0
2018-Jul-08 16:08N 35°03' E 129°04'0 0.0
2018-Jul-08 12:53N 35°03' E 129°04'0 0.0
2018-Jul-08 10:50N 35°03' E 129°04'0 0.0
2018-Jul-08 09:50N 35°03' E 129°04'0 0.0
2018-Jul-08 08:47N 35°03' E 129°04'0 0.0
2018-Jul-08 01:41N 35°03' E 129°04'0 0.0
2018-Jul-08 01:17N 35°03' E 129°04'0 0.0
2018-Jul-08 00:23N 35°03' E 129°04'0 0.0
2018-Jul-07 23:23N 35°03' E 129°04'0 0.0
2018-Jul-07 21:26N 35°03' E 129°04'0 0.0
2018-Jul-07 20:53N 35°03' E 129°04'0 0.0
2018-Jul-07 20:29N 35°03' E 129°04'0 0.0
2018-Jul-07 18:53N 35°03' E 129°04'0 0.0
2018-Jul-07 18:26N 35°03' E 129°04'0 0.0
2018-Jul-07 14:35N 35°03' E 129°04'0 0.0
2018-Jul-07 11:53N 35°03' E 129°04'0 0.1
2018-Jul-07 11:29N 35°03' E 129°04'0 0.0
2018-Jul-07 03:11N 35°03' E 129°04'0 1.1
2018-Jul-07 02:54N 35°03' E 129°04'2 3.7
2018-Jul-07 02:30N 35°01' E 129°03'0 0.1
2018-Jul-06 22:52N 35°01' E 129°03'0 0.0
2018-Jul-06 09:46N 35°01' E 129°03'0 0.2
2018-Jul-06 09:28N 35°01' E 129°03'0 0.0
2018-Jul-06 04:37N 35°01' E 129°03'0 0.0
2018-Jul-06 04:25N 35°01' E 129°03'0 0.0
2018-Jul-06 03:52N 35°01' E 129°03'0 0.2
2018-Jul-06 03:21N 35°01' E 129°03'4 4.9
2018-Jul-06 02:27N 35°02' E 129°08'510.6
2018-Jul-06 02:00N 35°05' E 129°13'  

Dump ship's entire track history